Time;durP1;ratioP1;P1;durP2;ratioP2;P2;SDS_P1;SDS_P2;PMS_P1;PMS_P2;Temp;Humidity;BMP_temperature;BMP_pressure;BME280_temperature;BME280_humidity;BME280_pressure;Samples;Min_cycle;Max_cycle;Signal;HPM_P1;HPM_P2
2023/08/01 00:00:03;;;;;;;5.00;2.85;;;15.80;99.90;;;;;;5065233;28;20098;-83
2023/08/01 00:02:37;;;;;;;4.05;3.20;;;15.80;99.90;;;;;;5043807;28;20041;-83
2023/08/01 00:05:04;;;;;;;5.55;3.65;;;15.70;99.90;;;;;;5059133;28;20036;-84
2023/08/01 00:07:29;;;;;;;7.32;3.15;;;15.80;99.90;;;;;;5039569;28;20677;-83
2023/08/01 00:09:55;;;;;;;4.97;3.63;;;15.70;99.90;;;;;;5056387;28;20103;-83
2023/08/01 00:12:23;;;;;;;5.05;3.38;;;15.70;99.90;;;;;;5066972;28;20040;-85
2023/08/01 00:14:49;;;;;;;5.85;3.60;;;15.70;99.90;;;;;;5066792;28;20031;-85
2023/08/01 00:17:15;;;;;;;4.55;3.35;;;15.60;99.90;;;;;;5056143;28;20124;-83
2023/08/01 00:19:41;;;;;;;6.05;3.55;;;15.60;99.90;;;;;;5071333;28;20043;-83
2023/08/01 00:22:06;;;;;;;6.82;3.70;;;15.70;99.90;;;;;;5071428;28;20032;-83
2023/08/01 00:24:32;;;;;;;4.65;3.33;;;15.60;99.90;;;;;;5072631;28;20038;-83
2023/08/01 00:26:58;;;;;;;7.15;3.85;;;15.60;99.90;;;;;;5073260;28;20036;-85
2023/08/01 00:29:24;;;;;;;5.53;3.70;;;15.60;99.90;;;;;;5055019;28;20099;-84
2023/08/01 00:31:49;;;;;;;6.00;3.70;;;15.60;99.90;;;;;;5068884;28;20044;-84
2023/08/01 00:34:15;;;;;;;5.18;3.45;;;15.60;99.90;;;;;;5041836;28;20037;-84
2023/08/01 00:36:59;;;;;;;4.90;3.63;;;15.60;99.90;;;;;;5061189;28;20097;-86
2023/08/01 00:39:25;;;;;;;6.55;4.22;;;15.60;99.90;;;;;;5057667;28;20037;-85
2023/08/01 00:41:51;;;;;;;9.05;3.95;;;15.50;99.90;;;;;;5066895;28;20125;-85
2023/08/01 00:44:16;;;;;;;6.50;3.67;;;15.50;99.90;;;;;;5033196;28;20033;-85
2023/08/01 00:46:42;;;;;;;4.78;3.95;;;15.50;99.90;;;;;;5051591;28;20028;-86
2023/08/01 00:49:08;;;;;;;6.25;4.45;;;15.50;99.90;;;;;;5050173;28;20103;-85
2023/08/01 00:51:35;;;;;;;7.97;4.03;;;15.50;99.90;;;;;;5061584;28;20036;-85
2023/08/01 00:54:01;;;;;;;7.30;4.28;;;15.50;99.90;;;;;;5053552;28;20028;-85
2023/08/01 00:56:27;;;;;;;7.85;4.68;;;15.50;99.90;;;;;;5069840;28;20037;-86
2023/08/01 00:58:53;;;;;;;5.10;4.13;;;15.50;99.90;;;;;;5054099;28;20523;-87
2023/08/01 01:01:19;;;;;;;8.85;4.68;;;15.50;99.90;;;;;;5014056;28;20119;-85
2023/08/01 01:03:45;;;;;;;8.70;4.80;;;15.50;99.90;;;;;;5033298;28;20120;-85
2023/08/01 01:06:24;;;;;;;11.73;5.00;;;15.50;99.90;;;;;;5054808;28;20048;-86
2023/08/01 01:08:55;;;;;;;9.85;4.15;;;15.50;99.90;;;;;;5061678;28;20032;-85
2023/08/01 01:11:21;;;;;;;10.30;4.95;;;15.50;99.90;;;;;;5045722;28;20036;-85
2023/08/01 01:13:47;;;;;;;7.40;5.07;;;15.40;99.90;;;;;;5073045;28;20174;-85
2023/08/01 01:16:12;;;;;;;9.48;4.90;;;15.40;99.90;;;;;;5034728;28;20021;-85
2023/08/01 01:18:41;;;;;;;7.65;4.82;;;15.40;99.90;;;;;;5037152;28;20039;-87
2023/08/01 01:21:06;;;;;;;8.68;4.97;;;15.30;99.90;;;;;;5070241;28;20042;-84
2023/08/01 01:23:34;;;;;;;9.10;5.40;;;15.30;99.90;;;;;;5061092;28;20045;-85
2023/08/01 01:26:00;;;;;;;5.95;4.78;;;15.30;99.90;;;;;;5039157;28;20035;-84
2023/08/01 01:28:27;;;;;;;7.60;5.15;;;15.30;99.90;;;;;;5039566;28;20069;-85
2023/08/01 01:30:54;;;;;;;6.05;4.75;;;15.30;99.90;;;;;;5057608;28;20105;-85
2023/08/01 01:33:20;;;;;;;7.78;5.03;;;15.30;99.90;;;;;;5053396;28;20437;-85
2023/08/01 01:35:47;;;;;;;6.53;4.80;;;15.30;99.90;;;;;;5068646;28;20074;-85
2023/08/01 01:38:13;;;;;;;6.85;4.60;;;15.30;99.90;;;;;;5054342;28;20063;-84
2023/08/01 01:40:39;;;;;;;8.73;5.47;;;15.30;99.90;;;;;;5071111;28;20060;-86
2023/08/01 01:43:04;;;;;;;10.43;5.20;;;15.30;99.90;;;;;;5069956;28;20031;-86
2023/08/01 01:45:31;;;;;;;9.13;5.13;;;15.30;99.90;;;;;;5037582;28;20090;-87
2023/08/01 01:47:58;;;;;;;9.57;5.03;;;15.30;99.90;;;;;;5037157;28;20032;-85
2023/08/01 01:50:24;;;;;;;8.75;5.20;;;15.30;99.90;;;;;;5037340;28;20036;-84
2023/08/01 01:52:49;;;;;;;10.50;5.03;;;15.30;99.90;;;;;;5072317;28;20044;-86
2023/08/01 01:55:15;;;;;;;8.10;5.07;;;15.30;99.90;;;;;;5026817;28;20041;-85
2023/08/01 01:57:41;;;;;;;8.52;5.25;;;15.30;99.90;;;;;;5070554;28;20040;-86
2023/08/01 02:00:10;;;;;;;8.50;5.30;;;15.30;99.90;;;;;;5034834;28;20025;-86
2023/08/01 02:02:38;;;;;;;11.10;5.70;;;15.30;99.90;;;;;;5052101;28;20037;-86
2023/08/01 02:05:04;;;;;;;10.23;5.53;;;15.30;99.90;;;;;;5062595;28;20499;-86
2023/08/01 02:07:30;;;;;;;14.00;5.72;;;15.30;99.90;;;;;;5061278;28;20119;-86
2023/08/01 02:10:00;;;;;;;10.95;5.22;;;15.30;99.90;;;;;;5053134;28;20033;-86
2023/08/01 02:12:26;;;;;;;13.32;5.70;;;15.30;99.90;;;;;;5035270;28;20032;-86
2023/08/01 02:14:52;;;;;;;16.25;5.72;;;15.30;99.90;;;;;;5050154;28;20044;-85
2023/08/01 02:17:18;;;;;;;13.18;4.72;;;15.30;99.90;;;;;;5051223;28;20041;-85
2023/08/01 02:19:43;;;;;;;9.38;5.43;;;15.30;99.90;;;;;;5033965;28;20098;-86
2023/08/01 02:22:09;;;;;;;9.20;5.38;;;15.30;99.90;;;;;;5024070;28;20048;-84
2023/08/01 02:24:41;;;;;;;7.97;5.03;;;15.30;99.90;;;;;;5066732;28;20020;-86
2023/08/01 02:27:06;;;;;;;9.85;5.40;;;15.30;99.90;;;;;;5077611;28;20035;-84
2023/08/01 02:29:32;;;;;;;13.88;5.30;;;15.30;99.90;;;;;;5047327;28;20474;-85
2023/08/01 02:31:58;;;;;;;10.18;5.50;;;15.30;99.90;;;;;;5056630;28;20044;-86
2023/08/01 02:34:24;;;;;;;8.63;5.55;;;15.30;99.90;;;;;;5050539;28;20032;-85
2023/08/01 02:36:50;;;;;;;8.82;5.55;;;15.30;99.90;;;;;;5073377;28;20036;-84
2023/08/01 02:39:15;;;;;;;9.60;5.95;;;15.30;99.90;;;;;;5026703;28;20032;-84
2023/08/01 02:41:41;;;;;;;11.85;5.88;;;15.30;99.90;;;;;;5054782;28;20055;-82
2023/08/01 02:44:07;;;;;;;9.07;5.70;;;15.30;99.90;;;;;;5076479;28;20455;-81
2023/08/01 02:46:35;;;;;;;9.38;5.63;;;15.30;99.90;;;;;;5078887;28;20032;-84
2023/08/01 02:49:02;;;;;;;8.18;5.35;;;15.20;99.90;;;;;;5071335;28;20028;-84
2023/08/01 02:51:28;;;;;;;14.05;5.82;;;15.20;99.90;;;;;;5058598;28;20037;-83
2023/08/01 02:53:54;;;;;;;11.40;5.88;;;15.20;99.90;;;;;;5064735;28;20051;-83
2023/08/01 02:56:19;;;;;;;30.65;6.65;;;15.20;99.90;;;;;;5045568;28;20533;-84
2023/08/01 02:58:45;;;;;;;12.35;5.95;;;15.20;99.90;;;;;;5044136;28;20112;-84
2023/08/01 03:01:11;;;;;;;38.25;7.25;;;15.20;99.90;;;;;;5045506;28;20078;-84
2023/08/01 03:03:41;;;;;;;14.38;6.25;;;15.20;99.90;;;;;;5072993;28;20039;-84
2023/08/01 03:06:08;;;;;;;11.07;5.38;;;15.30;99.90;;;;;;5060950;28;20056;-84
2023/08/01 03:08:34;;;;;;;18.02;6.45;;;15.20;99.90;;;;;;5062859;28;20641;-83
2023/08/01 03:10:59;;;;;;;11.82;5.57;;;15.20;99.90;;;;;;5079827;28;20032;-84
2023/08/01 03:13:25;;;;;;;8.98;5.70;;;15.20;99.90;;;;;;5078622;28;20032;-84
2023/08/01 03:15:52;;;;;;;16.77;6.15;;;15.30;99.90;;;;;;5088965;28;20567;-82
2023/08/01 03:18:18;;;;;;;13.73;6.45;;;15.30;99.90;;;;;;5043102;28;20074;-84
2023/08/01 03:20:43;;;;;;;11.02;5.32;;;15.20;99.90;;;;;;5060337;28;20028;-83
2023/08/01 03:23:09;;;;;;;11.82;6.20;;;15.20;99.90;;;;;;5071891;28;20059;-84
2023/08/01 03:25:35;;;;;;;11.85;5.60;;;15.20;99.90;;;;;;5062761;28;20553;-84
2023/08/01 03:28:01;;;;;;;11.07;5.72;;;15.30;99.90;;;;;;5075587;28;20064;-84
2023/08/01 03:30:27;;;;;;;8.38;5.10;;;15.30;99.90;;;;;;5083662;28;20081;-86
2023/08/01 03:32:54;;;;;;;14.65;5.78;;;15.30;99.90;;;;;;5060142;28;20024;-84
2023/08/01 03:35:20;;;;;;;24.52;6.80;;;15.20;99.90;;;;;;5074195;28;20032;-83
2023/08/01 03:37:45;;;;;;;13.15;6.32;;;15.20;99.90;;;;;;5078971;28;20475;-84
2023/08/01 03:40:11;;;;;;;14.27;6.30;;;15.20;99.90;;;;;;5050808;28;20032;-85
2023/08/01 03:42:37;;;;;;;10.93;5.65;;;15.20;99.90;;;;;;5054688;28;20123;-84
2023/08/01 03:45:05;;;;;;;10.38;5.80;;;15.20;99.90;;;;;;5077273;28;20032;-85
2023/08/01 03:47:31;;;;;;;10.55;5.88;;;15.30;99.90;;;;;;5089659;28;20051;-83
2023/08/01 03:49:57;;;;;;;37.28;6.65;;;15.30;99.90;;;;;;5093609;28;20132;-85
2023/08/01 03:52:24;;;;;;;15.73;5.78;;;15.20;99.90;;;;;;5049439;28;20060;-84
2023/08/01 03:54:53;;;;;;;14.63;6.20;;;15.20;99.90;;;;;;5038814;28;20037;-85
2023/08/01 03:57:19;;;;;;;9.65;5.53;;;15.30;99.90;;;;;;5036884;28;20055;-85
2023/08/01 03:59:46;;;;;;;16.65;6.00;;;15.30;99.90;;;;;;5067521;28;20417;-83
2023/08/01 04:02:11;;;;;;;16.13;6.47;;;15.30;99.90;;;;;;5070628;28;20032;-84
2023/08/01 04:04:37;;;;;;;15.00;6.22;;;15.30;99.90;;;;;;5073432;28;20071;-84
2023/08/01 04:07:04;;;;;;;9.02;5.22;;;15.30;99.90;;;;;;5055594;28;20107;-85
2023/08/01 04:09:30;;;;;;;18.48;5.82;;;15.30;99.90;;;;;;5070763;28;20052;-83
2023/08/01 04:11:56;;;;;;;14.13;5.90;;;15.30;99.90;;;;;;5020983;28;20071;-83
2023/08/01 04:14:22;;;;;;;13.98;5.40;;;15.30;99.90;;;;;;5072620;28;20123;-84
2023/08/01 04:16:48;;;;;;;8.15;5.65;;;15.30;99.90;;;;;;5084086;28;20065;-84
2023/08/01 04:19:13;;;;;;;13.07;5.90;;;15.30;99.90;;;;;;5085424;28;20568;-84
2023/08/01 04:21:39;;;;;;;10.43;5.15;;;15.30;99.90;;;;;;5064936;28;20057;-84
2023/08/01 04:24:05;;;;;;;11.40;5.35;;;15.30;99.90;;;;;;5065879;28;20036;-84
2023/08/01 04:26:31;;;;;;;9.68;4.95;;;15.30;99.90;;;;;;5065717;28;20130;-84
2023/08/01 04:29:17;;;;;;;11.88;5.25;;;15.30;99.90;;;;;;5047739;28;20110;-84
2023/08/01 04:31:43;;;;;;;11.27;5.80;;;15.40;99.90;;;;;;5073251;28;20032;-84
2023/08/01 04:34:09;;;;;;;9.55;5.60;;;15.40;99.90;;;;;;5072649;28;20031;-85
2023/08/01 04:36:35;;;;;;;11.32;5.15;;;15.40;99.90;;;;;;5075693;28;20092;-84
2023/08/01 04:39:01;;;;;;;14.00;6.00;;;15.40;99.90;;;;;;5041929;28;20086;-84
2023/08/01 04:41:27;;;;;;;11.48;5.28;;;15.40;99.90;;;;;;5072136;28;20067;-84
2023/08/01 04:43:53;;;;;;;14.02;5.38;;;15.40;99.90;;;;;;5055728;28;20044;-84
2023/08/01 04:46:19;;;;;;;7.55;5.30;;;15.50;99.90;;;;;;5071379;28;20028;-84
2023/08/01 04:48:45;;;;;;;15.13;5.30;;;15.40;99.90;;;;;;5058666;28;20039;-82
2023/08/01 04:51:10;;;;;;;8.90;5.25;;;15.40;99.90;;;;;;5079649;28;20488;-83
2023/08/01 04:53:38;;;;;;;10.35;5.25;;;15.50;99.90;;;;;;5073379;28;20035;-83
2023/08/01 04:56:10;;;;;;;8.80;4.85;;;15.50;99.90;;;;;;5072396;28;20453;-84
2023/08/01 04:58:36;;;;;;;13.70;5.82;;;15.50;99.90;;;;;;5080774;28;20039;-84
2023/08/01 05:01:01;;;;;;;8.73;4.50;;;15.50;99.90;;;;;;5079762;28;20029;-85
2023/08/01 05:03:27;;;;;;;10.88;4.82;;;15.50;99.90;;;;;;5071722;28;20481;-84
2023/08/01 05:05:53;;;;;;;8.55;4.90;;;15.50;99.90;;;;;;5076611;28;20025;-84
2023/08/01 05:08:19;;;;;;;14.60;4.97;;;15.50;99.90;;;;;;5078139;28;20024;-84
2023/08/01 05:10:45;;;;;;;9.07;5.03;;;15.50;99.90;;;;;;5065731;28;20063;-85
2023/08/01 05:13:10;;;;;;;7.18;4.40;;;15.50;99.90;;;;;;5083086;28;20052;-85
2023/08/01 05:15:36;;;;;;;14.77;4.70;;;15.50;99.90;;;;;;5062087;28;20036;-83
2023/08/01 05:18:02;;;;;;;8.82;4.50;;;15.50;99.90;;;;;;5089941;28;20471;-85
2023/08/01 05:20:30;;;;;;;8.50;4.70;;;15.60;99.90;;;;;;5076207;28;20032;-84
2023/08/01 05:22:59;;;;;;;8.48;4.10;;;15.60;99.90;;;;;;5088218;28;20028;-84
2023/08/01 05:25:25;;;;;;;7.20;4.72;;;15.60;99.90;;;;;;5063701;28;20060;-83
2023/08/01 05:27:50;;;;;;;7.97;4.97;;;15.60;99.90;;;;;;5036416;28;20079;-84
2023/08/01 05:30:16;;;;;;;8.30;5.05;;;15.60;99.90;;;;;;5059597;28;20033;-85
2023/08/01 05:32:43;;;;;;;7.45;4.45;;;15.60;99.90;;;;;;5058542;28;20047;-83
2023/08/01 05:35:09;;;;;;;10.70;4.63;;;15.70;99.90;;;;;;5053361;28;20737;-84
2023/08/01 05:37:35;;;;;;;8.63;4.95;;;15.70;99.90;;;;;;5043971;28;20108;-85
2023/08/01 05:40:03;;;;;;;8.68;4.97;;;15.70;99.90;;;;;;5010176;28;20150;-85
2023/08/01 05:42:29;;;;;;;9.27;5.00;;;15.70;99.90;;;;;;5061433;28;20033;-87
2023/08/01 05:44:55;;;;;;;8.13;4.80;;;15.60;99.90;;;;;;5036819;28;20035;-85
2023/08/01 05:47:22;;;;;;;6.75;4.78;;;15.70;99.90;;;;;;5073025;28;20033;-84
2023/08/01 05:49:49;;;;;;;8.50;4.55;;;15.60;99.90;;;;;;5067809;28;20032;-86
2023/08/01 05:52:14;;;;;;;10.25;4.85;;;15.60;99.90;;;;;;5049371;28;20041;-86
2023/08/01 05:54:40;;;;;;;8.52;4.57;;;15.60;99.90;;;;;;5069141;28;20036;-84
2023/08/01 05:57:07;;;;;;;15.20;4.70;;;15.60;99.90;;;;;;5074181;28;20024;-85
2023/08/01 05:59:33;;;;;;;15.40;5.15;;;15.60;99.90;;;;;;5080112;28;20044;-85
2023/08/01 06:01:58;;;;;;;5.50;4.03;;;15.60;99.90;;;;;;5051225;28;20055;-85
2023/08/01 06:04:24;;;;;;;7.70;4.07;;;15.60;99.90;;;;;;5062576;28;20037;-84
2023/08/01 06:06:50;;;;;;;8.48;4.20;;;15.60;99.90;;;;;;5055100;28;20067;-85
2023/08/01 06:09:16;;;;;;;6.07;4.40;;;15.50;99.90;;;;;;5066700;28;20120;-86
2023/08/01 06:11:42;;;;;;;5.65;4.35;;;15.60;99.90;;;;;;5071151;28;20631;-85
2023/08/01 06:14:08;;;;;;;6.40;4.13;;;15.60;99.90;;;;;;5069273;28;20024;-86
2023/08/01 06:16:34;;;;;;;20.70;4.70;;;15.60;99.90;;;;;;5061536;28;20033;-85
2023/08/01 06:19:00;;;;;;;7.53;4.40;;;15.60;99.90;;;;;;5055423;28;20155;-87
2023/08/01 06:21:26;;;;;;;11.70;4.55;;;15.60;99.90;;;;;;5059015;28;20135;-88
2023/08/01 06:23:52;;;;;;;7.88;4.78;;;15.70;99.90;;;;;;5034024;28;20408;-84
2023/08/01 06:26:17;;;;;;;9.85;5.07;;;15.70;99.90;;;;;;5037010;28;20044;-86
2023/08/01 06:28:43;;;;;;;6.10;3.80;;;15.70;99.90;;;;;;5038980;28;20037;-85
2023/08/01 06:31:09;;;;;;;6.40;4.38;;;15.70;99.90;;;;;;5046710;28;20548;-86
2023/08/01 06:33:36;;;;;;;7.30;4.05;;;15.70;99.90;;;;;;5076056;28;20035;-86
2023/08/01 06:36:03;;;;;;;8.35;4.13;;;15.70;99.90;;;;;;5064963;28;20029;-86
2023/08/01 06:38:28;;;;;;;6.68;3.92;;;15.70;99.90;;;;;;5066041;28;20071;-86
2023/08/01 06:40:57;;;;;;;6.05;3.88;;;15.70;99.90;;;;;;5047731;28;20107;-87
2023/08/01 06:43:24;;;;;;;8.15;4.10;;;15.80;99.90;;;;;;5035739;28;20136;-87
2023/08/01 06:45:50;;;;;;;5.90;3.53;;;15.80;99.90;;;;;;5036782;28;20032;-87
2023/08/01 06:48:16;;;;;;;15.05;4.38;;;15.80;99.90;;;;;;5066869;28;20036;-88
2023/08/01 06:50:42;;;;;;;6.03;3.80;;;15.80;99.90;;;;;;5065428;28;20021;-83
2023/08/01 06:53:08;;;;;;;9.30;3.33;;;15.80;99.90;;;;;;5059473;28;20123;-85
2023/08/01 06:55:35;;;;;;;30.55;4.57;;;15.80;99.90;;;;;;5030130;28;20024;-86
2023/08/01 06:58:01;;;;;;;7.07;3.85;;;15.80;99.90;;;;;;5056499;28;20037;-88
2023/08/01 07:00:27;;;;;;;8.18;3.47;;;15.80;99.90;;;;;;5048766;28;20082;-85
2023/08/01 07:02:52;;;;;;;10.15;3.83;;;15.80;99.90;;;;;;5053617;28;20041;-87
2023/08/01 07:05:18;;;;;;;6.00;4.10;;;15.80;99.90;;;;;;5031936;28;20037;-88
2023/08/01 07:07:44;;;;;;;5.45;3.28;;;15.80;99.90;;;;;;5018825;28;20021;-86
2023/08/01 07:10:10;;;;;;;5.72;3.28;;;15.80;99.90;;;;;;5055257;28;20029;-87
2023/08/01 07:12:36;;;;;;;13.48;4.00;;;15.80;99.90;;;;;;5057364;28;20481;-87
2023/08/01 07:15:03;;;;;;;6.00;3.38;;;15.80;99.90;;;;;;5065507;28;20044;-87
2023/08/01 07:17:28;;;;;;;5.95;3.72;;;15.80;99.90;;;;;;5054102;28;20086;-86
2023/08/01 07:19:54;;;;;;;5.22;3.38;;;15.80;99.90;;;;;;5056330;28;20033;-86
2023/08/01 07:22:20;;;;;;;12.18;3.65;;;15.80;99.90;;;;;;5040339;28;20036;-87
2023/08/01 07:24:54;;;;;;;4.68;3.22;;;15.80;99.90;;;;;;5052139;28;20147;-86
2023/08/01 07:27:19;;;;;;;14.20;3.75;;;15.80;99.90;;;;;;5073814;28;20033;-86
2023/08/01 07:29:45;;;;;;;5.05;3.13;;;15.80;99.90;;;;;;5037046;28;20028;-85
2023/08/01 07:32:11;;;;;;;5.43;3.10;;;15.80;99.90;;;;;;5064224;28;20025;-87
2023/08/01 07:34:37;;;;;;;4.88;2.92;;;15.80;99.90;;;;;;5047341;28;20439;-86
2023/08/01 07:37:06;;;;;;;5.10;2.95;;;15.80;99.90;;;;;;5066084;28;20041;-87
2023/08/01 07:40:04;;;;;;;3.88;2.70;;;15.80;99.90;;;;;;5057382;28;20036;-87
2023/08/01 07:42:50;;;;;;;12.35;3.15;;;15.80;99.90;;;;;;5074528;28;20056;-88
2023/08/01 07:45:17;;;;;;;18.75;4.10;;;15.80;99.90;;;;;;5055056;28;20158;-87
2023/08/01 07:47:43;;;;;;;6.03;2.85;;;15.80;99.90;;;;;;5065860;28;20120;-85
2023/08/01 07:50:09;;;;;;;4.43;3.55;;;15.80;99.90;;;;;;5040716;28;20060;-87
2023/08/01 07:52:35;;;;;;;4.78;3.15;;;15.80;99.90;;;;;;5040233;28;20574;-86
2023/08/01 07:55:00;;;;;;;6.60;3.15;;;15.80;99.90;;;;;;5023273;28;20029;-86
2023/08/01 07:57:26;;;;;;;4.23;3.47;;;15.80;99.90;;;;;;5020365;28;1269951;-86
2023/08/01 07:59:52;;;;;;;8.15;3.70;;;15.80;99.90;;;;;;5054852;28;20048;-86
2023/08/01 08:02:18;;;;;;;9.30;4.22;;;15.80;99.90;;;;;;5040725;28;20032;-87
2023/08/01 08:04:44;;;;;;;3.55;3.25;;;15.80;99.90;;;;;;5028383;28;20435;-87
2023/08/01 08:07:10;;;;;;;6.05;3.67;;;15.80;99.90;;;;;;5071426;28;20028;-84
2023/08/01 08:09:35;;;;;;;5.68;3.72;;;15.80;99.90;;;;;;5056903;28;20477;-85
2023/08/01 08:12:01;;;;;;;4.93;3.90;;;15.80;99.90;;;;;;5065656;28;20110;-85
2023/08/01 08:14:27;;;;;;;5.20;3.97;;;15.70;99.90;;;;;;5045702;28;20086;-86
2023/08/01 08:16:53;;;;;;;8.60;3.97;;;15.70;99.90;;;;;;5024464;28;20127;-86
2023/08/01 08:19:18;;;;;;;9.55;4.35;;;15.80;99.90;;;;;;5044764;28;20040;-84
2023/08/01 08:21:44;;;;;;;7.82;3.63;;;15.80;99.90;;;;;;5065568;28;20036;-83
2023/08/01 08:24:10;;;;;;;5.18;4.10;;;15.70;99.90;;;;;;5056696;28;20058;-84
2023/08/01 08:26:39;;;;;;;8.93;4.03;;;15.70;99.90;;;;;;5051074;28;20059;-87
2023/08/01 08:29:08;;;;;;;5.95;3.90;;;15.70;99.90;;;;;;5066062;28;20056;-84
2023/08/01 08:31:33;;;;;;;7.18;4.43;;;15.80;99.90;;;;;;5068404;28;20034;-84
2023/08/01 08:33:59;;;;;;;5.57;4.07;;;15.80;99.90;;;;;;5039894;28;20483;-84
2023/08/01 08:36:25;;;;;;;6.53;4.03;;;15.90;99.90;;;;;;5074440;28;20122;-84
2023/08/01 08:38:51;;;;;;;7.38;4.60;;;15.90;99.90;;;;;;5071454;28;20081;-84
2023/08/01 08:41:21;;;;;;;6.10;3.67;;;15.90;99.90;;;;;;5056246;28;20040;-87
2023/08/01 08:43:48;;;;;;;7.03;4.35;;;16.00;99.90;;;;;;5071825;28;20485;-83
2023/08/01 08:46:16;;;;;;;11.48;4.55;;;16.00;99.90;;;;;;5062545;28;20036;-83
2023/08/01 08:48:44;;;;;;;9.90;4.70;;;16.10;99.90;;;;;;5061319;28;20501;-82
2023/08/01 08:51:10;;;;;;;7.57;4.60;;;16.00;99.90;;;;;;5068114;28;20025;-82
2023/08/01 08:53:36;;;;;;;7.22;4.80;;;16.10;99.90;;;;;;5066955;28;20047;-83
2023/08/01 08:56:03;;;;;;;7.43;4.38;;;16.10;99.90;;;;;;5068048;28;20040;-82
2023/08/01 08:58:32;;;;;;;7.60;4.57;;;16.10;99.90;;;;;;5061658;28;20037;-84
2023/08/01 09:01:01;;;;;;;8.48;4.15;;;16.10;99.90;;;;;;5047217;28;20489;-83
2023/08/01 09:03:28;;;;;;;6.90;4.15;;;16.10;99.90;;;;;;5053913;28;20032;-84
2023/08/01 09:06:14;;;;;;;7.53;5.00;;;16.10;99.90;;;;;;5057422;28;20369;-85
2023/08/01 09:08:44;;;;;;;5.22;3.85;;;16.10;99.90;;;;;;5062362;28;20581;-84
2023/08/01 09:11:09;;;;;;;8.75;3.78;;;16.10;99.90;;;;;;5059432;28;20147;-84
2023/08/01 09:13:35;;;;;;;6.50;3.75;;;16.10;99.90;;;;;;5019718;28;20461;-85
2023/08/01 09:16:02;;;;;;;6.43;3.80;;;16.10;99.90;;;;;;5048122;28;20031;-84
2023/08/01 09:18:28;;;;;;;7.28;3.95;;;16.10;99.90;;;;;;5068850;28;20082;-85
2023/08/01 09:20:54;;;;;;;5.72;3.92;;;16.20;99.90;;;;;;5052947;28;20041;-83
2023/08/01 09:23:20;;;;;;;5.45;3.22;;;16.20;99.90;;;;;;5046896;28;20051;-84
2023/08/01 09:25:46;;;;;;;5.90;3.55;;;16.20;99.90;;;;;;5035888;28;20482;-84
2023/08/01 09:28:22;;;;;;;6.88;3.78;;;16.20;99.90;;;;;;5056220;28;20032;-85
2023/08/01 09:30:55;;;;;;;6.50;3.60;;;16.20;99.90;;;;;;5066657;28;20039;-84
2023/08/01 09:33:21;;;;;;;7.80;3.80;;;16.20;99.90;;;;;;5063340;28;20190;-83
2023/08/01 09:35:49;;;;;;;7.00;3.58;;;16.20;99.90;;;;;;5062676;28;20070;-85
2023/08/01 09:38:16;;;;;;;5.97;3.60;;;16.20;99.90;;;;;;5067869;28;20527;-84
2023/08/01 09:40:43;;;;;;;6.93;3.58;;;16.20;99.90;;;;;;5052595;28;20063;-85
2023/08/01 09:43:13;;;;;;;6.13;3.55;;;16.40;99.90;;;;;;5067242;28;20020;-84
2023/08/01 09:45:53;;;;;;;6.03;3.75;;;16.50;99.90;;;;;;5054356;28;20024;-84
2023/08/01 09:48:29;;;;;;;9.93;4.30;;;16.70;99.90;;;;;;5054756;28;20125;-85
2023/08/01 09:51:12;;;;;;;5.53;3.53;;;16.80;99.90;;;;;;5054135;28;20021;-85
2023/08/01 09:53:50;;;;;;;4.03;3.50;;;16.90;99.90;;;;;;5064352;28;20109;-85
2023/08/01 09:56:25;;;;;;;7.88;3.95;;;16.90;99.90;;;;;;5053306;28;20460;-84
2023/08/01 09:58:52;;;;;;;6.07;3.58;;;16.90;99.90;;;;;;5061404;28;20037;-85
2023/08/01 10:01:20;;;;;;;4.22;3.08;;;17.00;99.90;;;;;;5049265;28;20044;-84
2023/08/01 10:04:06;;;;;;;3.00;2.60;;;17.00;99.90;;;;;;5071781;28;20564;-83
2023/08/01 10:06:34;;;;;;;3.03;2.08;;;17.00;99.90;;;;;;5063958;28;20051;-85
2023/08/01 10:09:00;;;;;;;3.00;2.28;;;16.90;99.90;;;;;;5055928;28;20159;-84
2023/08/01 10:11:28;;;;;;;2.90;2.60;;;16.80;99.90;;;;;;5066806;28;20056;-87
2023/08/01 10:13:55;;;;;;;6.32;2.63;;;16.90;99.90;;;;;;5039459;28;20029;-85
2023/08/01 10:16:23;;;;;;;5.88;2.30;;;16.90;99.90;;;;;;5052484;28;20033;-85
2023/08/01 10:18:50;;;;;;;3.10;2.40;;;16.90;99.90;;;;;;5048147;28;20032;-85
2023/08/01 10:21:18;;;;;;;3.53;2.33;;;17.00;99.90;;;;;;5067080;28;20032;-82
2023/08/01 10:23:45;;;;;;;4.40;2.80;;;17.00;99.90;;;;;;5062415;28;20040;-82
2023/08/01 10:26:12;;;;;;;2.85;2.05;;;17.00;99.90;;;;;;5045243;28;20024;-80
2023/08/01 10:28:40;;;;;;;3.08;2.47;;;17.00;99.90;;;;;;5064466;28;20024;-83
2023/08/01 10:31:16;;;;;;;2.38;2.08;;;17.00;99.90;;;;;;5061722;28;20127;-81
2023/08/01 10:33:45;;;;;;;2.42;2.22;;;17.10;99.90;;;;;;5062764;28;20064;-83
2023/08/01 10:36:17;;;;;;;2.47;2.17;;;17.00;99.90;;;;;;5048057;28;20102;-84
2023/08/01 10:38:53;;;;;;;6.15;2.58;;;17.10;99.90;;;;;;5047822;28;20032;-85
2023/08/01 10:41:21;;;;;;;;;;;17.10;99.90;;;;;;5058953;28;20029;-86
2023/08/01 10:43:47;;;;;;;2.45;2.25;;;17.10;99.90;;;;;;5054575;28;19920;-83
2023/08/01 10:46:13;;;;;;;6.22;3.10;;;17.10;99.90;;;;;;5059842;28;20013;-83
2023/08/01 10:48:50;;;;;;;3.03;2.40;;;17.10;99.90;;;;;;5057283;28;20527;-83
2023/08/01 10:51:15;;;;;;;2.55;2.20;;;17.10;99.90;;;;;;5064718;28;20473;-83
2023/08/01 10:53:41;;;;;;;2.88;2.30;;;17.00;99.90;;;;;;5069095;28;20037;-84
2023/08/01 10:56:08;;;;;;;3.05;2.65;;;17.00;99.90;;;;;;5064964;28;20033;-84
2023/08/01 10:58:34;;;;;;;3.10;2.80;;;16.90;99.90;;;;;;5066229;28;20037;-86
2023/08/01 11:01:00;;;;;;;3.22;2.50;;;16.90;99.90;;;;;;5019914;28;20097;-84
2023/08/01 11:03:36;;;;;;;3.38;3.08;;;16.80;99.90;;;;;;5050028;28;20114;-85
2023/08/01 11:06:03;;;;;;;3.80;2.80;;;16.70;99.90;;;;;;5061812;28;20438;-84
2023/08/01 11:08:37;;;;;;;3.80;3.17;;;16.60;99.90;;;;;;5043638;28;20432;-83
2023/08/01 11:11:05;;;;;;;3.28;2.90;;;16.60;99.90;;;;;;5064688;28;20051;-85
2023/08/01 11:13:34;;;;;;;5.22;3.17;;;16.50;99.90;;;;;;5053893;28;20382;-83
2023/08/01 11:16:01;;;;;;;5.72;3.40;;;16.60;99.90;;;;;;5061349;28;20390;-84
2023/08/01 11:18:27;;;;;;;8.05;3.58;;;16.50;99.90;;;;;;5073495;28;20037;-85
2023/08/01 11:20:52;;;;;;;6.45;3.55;;;16.50;99.90;;;;;;5026089;28;20384;-84
2023/08/01 11:23:18;;;;;;;5.85;3.70;;;16.40;99.90;;;;;;5044759;28;20531;-87
2023/08/01 11:25:45;;;;;;;4.05;3.10;;;16.40;99.90;;;;;;5054968;28;20039;-86
2023/08/01 11:28:14;;;;;;;4.38;3.42;;;16.30;99.90;;;;;;5063228;28;20075;-86
2023/08/01 11:30:40;;;;;;;33.42;4.30;;;16.30;99.90;;;;;;5052615;28;20028;-82
2023/08/01 11:33:23;;;;;;;16.83;4.25;;;16.30;99.90;;;;;;5063996;28;20112;-82
2023/08/01 11:35:53;;;;;;;4.50;3.00;;;16.30;99.90;;;;;;5057404;28;20028;-84
2023/08/01 11:38:21;;;;;;;5.05;3.40;;;16.30;99.90;;;;;;5055108;28;20579;-82
2023/08/01 11:40:49;;;;;;;6.82;3.22;;;16.40;99.90;;;;;;5068158;28;20025;-85
2023/08/01 11:43:15;;;;;;;6.78;3.33;;;16.60;99.90;;;;;;5071310;28;20041;-84
2023/08/01 11:45:56;;;;;;;3.05;2.05;;;16.60;99.90;;;;;;5054959;28;20058;-85
2023/08/01 11:48:23;;;;;;;15.40;3.33;;;16.60;99.90;;;;;;5064922;28;20450;-83
2023/08/01 11:50:49;;;;;;;6.85;2.53;;;16.70;99.90;;;;;;5045394;28;20024;-81
2023/08/01 11:53:22;;;;;;;1.90;1.70;;;16.90;99.90;;;;;;5047792;28;20041;-83
2023/08/01 11:55:56;;;;;;;2.35;1.80;;;17.20;99.90;;;;;;5062267;28;20033;-82
2023/08/01 11:58:32;;;;;;;1.60;1.50;;;17.20;99.90;;;;;;5055084;28;20028;-83
2023/08/01 12:01:08;;;;;;;1.42;1.33;;;17.30;99.90;;;;;;5065634;28;20036;-84
2023/08/01 12:03:48;;;;;;;1.38;1.27;;;17.30;99.90;;;;;;5065332;28;20032;-84
2023/08/01 12:06:15;;;;;;;1.75;1.65;;;17.20;99.90;;;;;;5058740;28;20340;-84
2023/08/01 12:08:45;;;;;;;2.05;1.40;;;17.30;99.90;;;;;;5056262;28;20043;-81
2023/08/01 12:11:29;;;;;;;2.63;1.60;;;17.40;99.90;;;;;;5066551;28;20060;-83
2023/08/01 12:14:13;;;;;;;3.38;1.50;;;17.40;99.90;;;;;;5063306;28;20047;-82
2023/08/01 12:16:46;;;;;;;2.47;1.65;;;17.40;99.90;;;;;;5060684;28;20038;-82
2023/08/01 12:19:20;;;;;;;5.35;2.10;;;17.50;99.90;;;;;;5061243;28;20060;-83
2023/08/01 12:21:47;;;;;;;2.42;1.70;;;17.60;99.90;;;;;;5064190;28;20102;-82
2023/08/01 12:24:12;;;;;;;1.98;1.40;;;17.60;99.90;;;;;;5056284;28;20036;-83
2023/08/01 12:26:38;;;;;;;1.70;1.60;;;17.70;99.90;;;;;;5050541;28;20404;-81
2023/08/01 12:29:04;;;;;;;1.63;1.52;;;17.80;99.90;;;;;;5060266;28;20108;-81
2023/08/01 12:31:30;;;;;;;4.10;1.55;;;17.80;99.90;;;;;;5057626;28;20131;-81
2023/08/01 12:33:56;;;;;;;2.90;1.70;;;17.80;99.90;;;;;;5071429;28;20039;-82
2023/08/01 12:36:22;;;;;;;1.92;1.77;;;17.80;99.90;;;;;;5072191;28;20090;-82
2023/08/01 12:38:48;;;;;;;1.88;1.48;;;17.80;99.90;;;;;;5064089;28;20119;-80
2023/08/01 12:41:14;;;;;;;3.90;1.58;;;17.80;99.90;;;;;;5069928;28;20037;-81
2023/08/01 12:43:39;;;;;;;1.95;1.70;;;17.90;99.90;;;;;;5066388;28;20047;-82
2023/08/01 12:46:05;;;;;;;4.35;1.80;;;18.00;99.90;;;;;;5066546;28;20025;-82